createdAt,value
2023-04-11T04:27:44.849Z,11.70
2023-04-11T04:30:19.758Z,11.50
2023-04-11T04:33:04.479Z,11.30
2023-04-11T04:35:35.698Z,11.20
2023-04-11T04:38:09.299Z,11.20
2023-04-11T04:40:47.991Z,11.30
2023-04-11T04:43:24.016Z,11.20
2023-04-11T04:46:00.050Z,11.30
2023-04-11T04:48:35.807Z,11.40
2023-04-11T04:51:05.422Z,11.40
2023-04-11T04:53:39.103Z,11.40
2023-04-11T04:56:10.374Z,11.30
2023-04-11T04:58:47.860Z,11.30
2023-04-11T05:01:18.686Z,11.30
2023-04-11T05:03:51.387Z,11.30
2023-04-11T05:06:29.629Z,11.30
2023-04-11T05:08:59.772Z,11.40
2023-04-11T05:11:29.230Z,11.40
2023-04-11T05:13:59.394Z,11.60
2023-04-11T05:16:28.695Z,11.60
2023-04-11T05:18:58.907Z,11.60
2023-04-11T05:21:27.741Z,11.60
2023-04-11T05:23:56.781Z,11.50
2023-04-11T05:26:27.196Z,11.50
2023-04-11T05:28:56.070Z,11.70
2023-04-11T05:31:30.330Z,11.60
2023-04-11T05:33:59.365Z,11.70
2023-04-11T05:36:29.859Z,11.80
2023-04-11T05:38:58.597Z,11.60
2023-04-11T05:41:29.696Z,11.50
2023-04-11T05:43:58.338Z,11.70
2023-04-11T05:46:28.108Z,11.70
2023-04-11T05:48:58.628Z,11.70
2023-04-11T05:51:27.283Z,11.60
2023-04-11T05:53:56.083Z,11.50
2023-04-11T05:56:24.907Z,11.40
2023-04-11T05:58:53.385Z,11.60
2023-04-11T06:01:22.607Z,11.90
2023-04-11T06:03:51.205Z,11.90
2023-04-11T06:06:21.512Z,12.00
2023-04-11T06:08:50.216Z,11.60
2023-04-11T06:11:18.626Z,11.80
2023-04-11T06:13:47.313Z,12.00
2023-04-11T06:16:16.135Z,12.10
2023-04-11T06:18:44.765Z,12.20
2023-04-11T06:21:13.184Z,12.10
2023-04-11T06:23:43.386Z,12.10
2023-04-11T06:26:12.009Z,12.30
2023-04-11T06:28:40.538Z,12.40
2023-04-11T06:31:10.194Z,12.40
2023-04-11T06:33:39.276Z,12.50
2023-04-11T06:36:08.458Z,12.60
2023-04-11T06:38:38.515Z,12.60
2023-04-11T06:41:08.860Z,12.50
2023-04-11T06:43:37.777Z,12.50
2023-04-11T06:46:08.648Z,12.60
2023-04-11T06:48:37.348Z,12.60
2023-04-11T06:51:06.269Z,12.60
2023-04-11T06:53:35.055Z,12.60
2023-04-11T06:56:03.648Z,12.70
2023-04-11T06:58:34.046Z,12.70
2023-04-11T07:01:02.735Z,12.80
2023-04-11T07:03:31.444Z,12.90
2023-04-11T07:06:00.184Z,12.90
2023-04-11T07:08:28.800Z,12.80
2023-04-11T07:10:57.389Z,12.90
2023-04-11T07:13:26.094Z,12.90
2023-04-11T07:15:56.586Z,13.00
2023-04-11T07:18:26.450Z,13.10
2023-04-11T07:20:55.040Z,13.00
2023-04-11T07:23:23.856Z,13.10
2023-04-11T07:25:54.905Z,13.10
2023-04-11T07:28:24.141Z,13.20
2023-04-11T07:30:55.160Z,13.30
2023-04-11T07:33:23.853Z,13.40
2023-04-11T07:35:52.519Z,13.50
2023-04-11T07:38:27.898Z,13.60
2023-04-11T07:40:57.316Z,13.60
2023-04-11T07:43:26.691Z,13.60
2023-04-11T07:45:57.714Z,13.60
2023-04-11T07:48:27.975Z,13.60
2023-04-11T07:50:57.104Z,13.50
2023-04-11T07:53:25.653Z,13.40
2023-04-11T07:55:54.344Z,13.30
2023-04-11T07:58:22.777Z,13.50
2023-04-11T08:00:51.546Z,13.50
2023-04-11T08:03:22.375Z,13.70
2023-04-11T08:05:52.686Z,13.90
2023-04-11T08:08:21.505Z,14.00
2023-04-11T08:10:52.030Z,14.00
2023-04-11T08:13:21.147Z,14.10
2023-04-11T08:15:49.544Z,14.10
2023-04-11T08:18:21.847Z,14.00
2023-04-11T08:20:52.090Z,13.90
2023-04-11T08:23:22.064Z,14.00
2023-04-11T08:25:50.718Z,14.20
2023-04-11T08:28:18.827Z,14.30
2023-04-11T08:30:47.013Z,14.40
2023-04-11T08:33:16.017Z,14.60
2023-04-11T08:35:44.041Z,14.60
2023-04-11T08:38:13.666Z,14.70
2023-04-11T08:40:41.592Z,14.70
2023-04-11T08:43:12.538Z,14.80
2023-04-11T08:45:41.305Z,14.80
2023-04-11T08:48:12.593Z,14.90
2023-04-11T08:50:42.469Z,15.00
2023-04-11T08:53:11.045Z,15.10
2023-04-11T08:55:47.232Z,15.20
2023-04-11T08:58:15.715Z,15.20
2023-04-11T09:00:44.104Z,15.30
2023-04-11T09:03:13.372Z,15.50
2023-04-11T09:05:43.641Z,15.50
2023-04-11T09:08:12.532Z,15.60
2023-04-11T09:10:41.807Z,15.70
2023-04-11T09:13:25.654Z,15.70
2023-04-11T09:16:05.614Z,15.70
2023-04-11T09:18:34.434Z,15.70
2023-04-11T09:21:04.196Z,15.70
2023-04-11T09:23:32.415Z,16.00
2023-04-11T09:26:00.495Z,16.10
2023-04-11T09:28:41.072Z,16.20
2023-04-11T09:31:10.558Z,16.20
2023-04-11T09:33:38.848Z,16.20
2023-04-11T09:36:20.042Z,16.30
2023-04-11T09:38:48.594Z,16.40
2023-04-11T09:41:29.271Z,16.50
2023-04-11T09:43:59.353Z,16.50
2023-04-11T09:46:27.646Z,16.60
2023-04-11T09:48:56.891Z,16.70
2023-04-11T09:51:35.046Z,16.70
2023-04-11T09:54:05.732Z,16.70
2023-04-11T09:56:34.933Z,16.80
2023-04-11T09:59:05.592Z,16.80
2023-04-11T10:01:33.928Z,16.70
2023-04-11T10:04:02.267Z,16.70
2023-04-11T10:06:35.225Z,16.60
2023-04-11T10:09:11.587Z,16.70
2023-04-11T10:11:42.886Z,16.70
2023-04-11T10:14:47.721Z,16.80
2023-04-11T10:17:21.192Z,16.80
2023-04-11T10:19:54.487Z,16.80
2023-04-11T10:23:00.181Z,16.90
2023-04-11T10:25:29.135Z,17.00
2023-04-11T10:28:01.727Z,17.10
2023-04-11T10:31:06.131Z,17.20
2023-04-11T10:33:36.492Z,17.10
2023-04-11T10:36:06.748Z,17.10
2023-04-11T10:38:48.631Z,17.00
2023-04-11T10:41:18.903Z,16.70
2023-04-11T10:43:47.604Z,16.60
2023-04-11T10:46:22.725Z,16.50
2023-04-11T10:48:59.402Z,16.50
2023-04-11T10:51:32.502Z,16.40
2023-04-11T10:54:01.630Z,16.40
2023-04-11T10:56:55.785Z,16.30
2023-04-11T11:00:02.638Z,16.20
2023-04-11T11:02:42.446Z,16.10
2023-04-11T11:05:19.513Z,16.10
2023-04-11T11:07:50.297Z,16.10
2023-04-11T11:10:40.259Z,16.10
2023-04-11T11:13:11.606Z,16.30
2023-04-11T11:15:47.043Z,16.50
2023-04-11T11:18:18.798Z,16.70
2023-04-11T11:20:47.108Z,16.80
2023-04-11T11:23:15.121Z,17.00
2023-04-11T11:25:53.545Z,17.00
2023-04-11T11:28:21.982Z,17.10
2023-04-11T11:30:55.625Z,17.10
2023-04-11T11:33:29.049Z,17.20
2023-04-11T11:35:59.360Z,17.30
2023-04-11T11:38:31.638Z,17.40
2023-04-11T11:41:00.557Z,17.60
2023-04-11T11:43:29.051Z,17.60
2023-04-11T11:46:11.511Z,17.80
2023-04-11T11:48:42.526Z,17.80
2023-04-11T11:51:10.623Z,17.70
2023-04-11T11:53:38.885Z,17.70
2023-04-11T11:56:14.606Z,17.60
2023-04-11T11:58:46.246Z,17.70
2023-04-11T12:01:16.541Z,18.10
2023-04-11T12:03:51.756Z,18.20
2023-04-11T12:06:20.467Z,18.50
2023-04-11T12:08:54.244Z,18.60
2023-04-11T12:11:22.973Z,18.60
2023-04-11T12:13:53.713Z,18.70
2023-04-11T12:16:24.102Z,18.50
2023-04-11T12:18:53.824Z,18.40
2023-04-11T12:21:21.846Z,18.30
2023-04-11T12:23:49.818Z,18.20
2023-04-11T12:26:20.242Z,18.20
2023-04-11T12:28:48.863Z,18.30
2023-04-11T12:31:17.600Z,18.30
2023-04-11T12:33:45.705Z,18.60
2023-04-11T12:36:15.833Z,18.70
2023-04-11T12:38:44.186Z,18.90
2023-04-11T12:41:31.017Z,19.10
2023-04-11T12:44:02.578Z,19.10
2023-04-11T12:46:31.014Z,19.20
2023-04-11T12:48:59.424Z,19.40
2023-04-11T12:51:28.926Z,19.40
2023-04-11T12:53:57.156Z,19.30
2023-04-11T12:56:25.384Z,19.50
2023-04-11T12:58:54.260Z,19.60
2023-04-11T13:01:24.224Z,19.80
2023-04-11T13:03:52.519Z,19.60
2023-04-11T13:06:20.718Z,19.50
2023-04-11T13:08:50.983Z,19.20
2023-04-11T13:11:19.483Z,18.90
2023-04-11T13:13:47.595Z,18.60
2023-04-11T13:16:16.269Z,18.30
2023-04-11T13:18:44.318Z,18.00
2023-04-11T13:21:12.445Z,17.70
2023-04-11T13:23:40.586Z,17.50
2023-04-11T13:26:10.288Z,17.40
2023-04-11T13:28:41.174Z,17.30
2023-04-11T13:31:12.083Z,17.30
2023-04-11T13:33:45.063Z,17.30
2023-04-11T13:36:13.230Z,17.40
2023-04-11T13:38:41.423Z,17.30
2023-04-11T13:41:12.215Z,17.40
2023-04-11T13:43:42.918Z,17.30
2023-04-11T13:46:11.776Z,17.30
2023-04-11T13:48:39.956Z,17.40
2023-04-11T13:51:08.519Z,17.40
2023-04-11T13:53:36.612Z,17.40
2023-04-11T13:56:05.048Z,17.30
2023-04-11T13:58:35.438Z,17.40
2023-04-11T14:01:03.655Z,17.30
2023-04-11T14:03:33.922Z,17.30
2023-04-11T14:06:03.666Z,17.40
2023-04-11T14:08:32.052Z,17.40
2023-04-11T14:11:00.218Z,17.30
2023-04-11T14:13:28.276Z,17.30
2023-04-11T14:16:08.148Z,17.20
2023-04-11T14:18:37.238Z,17.30
2023-04-11T14:21:06.058Z,17.30
2023-04-11T14:23:34.462Z,17.20
2023-04-11T14:26:02.554Z,17.30
2023-04-11T14:28:30.844Z,17.20
2023-04-11T14:31:00.471Z,17.10
2023-04-11T14:33:28.699Z,17.10
2023-04-11T14:35:56.785Z,17.20
2023-04-11T14:38:24.983Z,17.10
2023-04-11T14:40:53.022Z,17.00
2023-04-11T14:43:21.254Z,17.00
2023-04-11T14:45:49.390Z,17.10
2023-04-11T14:48:19.113Z,17.00
2023-04-11T14:50:47.270Z,17.00
2023-04-11T14:53:15.659Z,16.90
2023-04-11T14:55:44.673Z,16.90
2023-04-11T14:58:12.940Z,16.90
2023-04-11T15:00:41.311Z,16.90
2023-04-11T15:03:10.120Z,16.90
2023-04-11T15:05:39.730Z,16.90
2023-04-11T15:08:08.499Z,16.90
2023-04-11T15:10:36.790Z,17.00
2023-04-11T15:13:06.090Z,17.00
2023-04-11T15:15:34.311Z,17.00
2023-04-11T15:18:24.989Z,17.00
2023-04-11T15:20:55.686Z,16.90
2023-04-11T15:23:24.281Z,16.90
2023-04-11T15:25:59.519Z,16.90
2023-04-11T15:28:31.782Z,17.00
2023-04-11T15:31:00.130Z,17.00
2023-04-11T15:33:28.503Z,17.00
2023-04-11T15:36:00.308Z,17.00
2023-04-11T15:38:29.461Z,16.90
2023-04-11T15:40:59.480Z,16.90
2023-04-11T15:43:27.802Z,16.90
2023-04-11T15:45:56.099Z,17.00
2023-04-11T15:48:24.399Z,17.00
2023-04-11T15:50:53.234Z,17.00
2023-04-11T15:53:22.950Z,17.00
2023-04-11T15:55:51.600Z,17.00
2023-04-11T15:58:19.654Z,16.90
2023-04-11T16:00:47.601Z,17.00
2023-04-11T16:03:16.897Z,17.00
2023-04-11T16:05:46.091Z,17.00
2023-04-11T16:08:14.250Z,17.00
2023-04-11T16:10:43.726Z,17.00
2023-04-11T16:13:11.890Z,17.10
2023-04-11T16:15:39.824Z,17.20
2023-04-11T16:18:08.064Z,17.30
2023-04-11T16:20:36.400Z,17.30
2023-04-11T16:23:04.515Z,17.20
2023-04-11T16:25:32.657Z,17.20
2023-04-11T16:28:02.427Z,17.10
2023-04-11T16:30:30.795Z,17.10
2023-04-11T16:32:59.074Z,17.10
2023-04-11T16:35:27.169Z,17.20
2023-04-11T16:37:55.378Z,17.20
2023-04-11T16:40:23.482Z,17.10
2023-04-11T16:42:52.040Z,17.10
2023-04-11T16:45:21.764Z,17.00
2023-04-11T16:47:50.170Z,17.00
2023-04-11T16:50:18.638Z,17.00
2023-04-11T16:52:46.699Z,17.00
2023-04-11T16:55:15.307Z,17.00
2023-04-11T16:57:43.581Z,16.90
2023-04-11T17:00:18.937Z,16.90
2023-04-11T17:02:48.829Z,16.90
2023-04-11T17:05:19.421Z,16.90
2023-04-11T17:07:47.702Z,16.80
2023-04-11T17:10:15.924Z,16.80
2023-04-11T17:12:44.222Z,16.80
2023-04-11T17:15:13.323Z,16.70
2023-04-11T17:17:41.586Z,16.70
2023-04-11T17:20:12.549Z,16.70
2023-04-11T17:22:43.504Z,16.60
2023-04-11T17:25:12.205Z,16.60
2023-04-11T17:27:41.341Z,16.60
2023-04-11T17:30:10.363Z,16.50
2023-04-11T17:32:38.538Z,16.50
2023-04-11T17:35:13.580Z,16.40
2023-04-11T17:37:41.698Z,16.40
2023-04-11T17:40:14.586Z,16.40
2023-04-11T17:42:42.987Z,16.40
2023-04-11T17:45:18.167Z,16.30
2023-04-11T17:47:47.774Z,16.30
2023-04-11T17:50:18.297Z,16.30
2023-04-11T17:52:50.207Z,16.30
2023-04-11T17:55:19.656Z,16.20
2023-04-11T17:57:49.442Z,16.20
2023-04-11T18:00:21.779Z,16.20
2023-04-11T18:02:51.652Z,16.20
2023-04-11T18:05:25.002Z,16.20
2023-04-11T18:07:56.752Z,16.20
2023-04-11T18:10:26.718Z,16.20
2023-04-11T18:12:56.755Z,16.30
2023-04-11T18:15:26.438Z,16.30
2023-04-11T18:17:54.581Z,16.30
2023-04-11T18:20:24.498Z,16.30
2023-04-11T18:22:56.509Z,16.30
2023-04-11T18:25:25.080Z,16.20
2023-04-11T18:27:53.267Z,16.20
2023-04-11T18:30:21.708Z,16.20
2023-04-11T18:32:52.101Z,16.20
2023-04-11T18:35:21.690Z,16.20
2023-04-11T18:37:51.577Z,16.20
2023-04-11T18:40:19.907Z,16.20
2023-04-11T18:42:51.113Z,16.20
2023-04-11T18:45:23.818Z,16.20
2023-04-11T18:47:52.638Z,16.20
2023-04-11T18:50:23.160Z,16.10
2023-04-11T18:52:55.919Z,16.10
2023-04-11T18:55:27.739Z,16.10
2023-04-11T18:57:59.537Z,16.10
2023-04-11T19:00:30.434Z,16.10
2023-04-11T19:03:00.012Z,16.10
2023-04-11T19:05:29.411Z,16.00
2023-04-11T19:08:00.958Z,16.00
2023-04-11T19:10:29.177Z,15.90
2023-04-11T19:12:57.816Z,15.90
2023-04-11T19:15:26.190Z,15.90
2023-04-11T19:17:57.835Z,15.90
2023-04-11T19:20:27.139Z,15.90
2023-04-11T19:22:55.867Z,15.90
2023-04-11T19:25:27.905Z,15.90
2023-04-11T19:27:56.325Z,15.90
2023-04-11T19:30:24.720Z,15.90
2023-04-11T19:32:53.038Z,15.90
2023-04-11T19:35:24.512Z,15.90
2023-04-11T19:37:53.368Z,15.80
2023-04-11T19:40:23.723Z,15.80
2023-04-11T19:42:54.238Z,15.80
2023-04-11T19:45:22.659Z,15.70
2023-04-11T19:47:51.231Z,15.70
2023-04-11T19:50:23.234Z,15.70
2023-04-11T19:52:58.688Z,15.60
2023-04-11T19:55:27.658Z,15.60
2023-04-11T19:57:57.687Z,15.60
2023-04-11T20:00:27.256Z,15.60
2023-04-11T20:02:58.017Z,15.60
2023-04-11T20:05:28.211Z,15.60
2023-04-11T20:07:56.353Z,15.70
2023-04-11T20:10:26.057Z,15.60
2023-04-11T20:12:54.200Z,15.70
2023-04-11T20:15:24.128Z,15.60
2023-04-11T20:17:52.774Z,15.70
2023-04-11T20:20:26.222Z,15.70
2023-04-11T20:22:55.131Z,15.70
2023-04-11T20:25:24.439Z,15.70
2023-04-11T20:27:56.435Z,15.70
2023-04-11T20:30:27.052Z,15.70
2023-04-11T20:32:55.360Z,15.70
2023-04-11T20:35:23.894Z,15.80
2023-04-11T20:37:54.333Z,15.90
2023-04-11T20:40:22.871Z,15.90
2023-04-11T20:42:51.090Z,15.90
2023-04-11T20:45:22.951Z,15.90
2023-04-11T20:47:53.914Z,15.90
2023-04-11T20:50:22.300Z,15.90
2023-04-11T20:52:53.406Z,15.90
2023-04-11T20:55:21.569Z,15.90
2023-04-11T20:57:50.382Z,15.90
2023-04-11T21:00:20.267Z,15.90
2023-04-11T21:02:50.708Z,15.90
2023-04-11T21:05:25.279Z,15.90
2023-04-11T21:07:58.576Z,15.90
2023-04-11T21:10:26.929Z,15.90
2023-04-11T21:12:55.277Z,15.90
2023-04-11T21:15:24.034Z,15.90
2023-04-11T21:17:52.590Z,15.80
2023-04-11T21:20:22.960Z,15.90
2023-04-11T21:22:53.327Z,15.80
2023-04-11T21:25:22.591Z,15.80
2023-04-11T21:27:51.119Z,15.80
2023-04-11T21:30:19.775Z,15.70
2023-04-11T21:32:50.147Z,15.70
2023-04-11T21:35:18.385Z,15.70
2023-04-11T21:37:49.181Z,15.70
2023-04-11T21:40:17.755Z,15.60
2023-04-11T21:42:46.200Z,15.60
2023-04-11T21:45:16.979Z,15.60
2023-04-11T21:47:45.268Z,15.70
2023-04-11T21:50:13.512Z,15.60
2023-04-11T21:52:41.954Z,15.60
2023-04-11T21:55:12.317Z,15.50
2023-04-11T21:57:40.934Z,15.60
2023-04-11T22:00:13.121Z,15.60
2023-04-11T22:02:42.812Z,15.60
2023-04-11T22:05:12.843Z,15.50
2023-04-11T22:07:47.602Z,15.50
2023-04-11T22:10:23.253Z,15.50
2023-04-11T22:12:54.795Z,15.50
2023-04-11T22:15:24.617Z,15.60
2023-04-11T22:17:56.784Z,15.70
2023-04-11T22:20:25.238Z,15.70
2023-04-11T22:22:53.400Z,15.70
2023-04-11T22:25:25.285Z,15.70
2023-04-11T22:27:54.917Z,15.70
2023-04-11T22:30:24.693Z,15.70
2023-04-11T22:32:54.472Z,15.60
2023-04-11T22:35:25.168Z,15.60
2023-04-11T22:37:55.689Z,15.60
2023-04-11T22:40:25.740Z,15.60
2023-04-11T22:42:54.417Z,15.60
2023-04-11T22:45:23.595Z,15.60
2023-04-11T22:47:54.663Z,15.70
2023-04-11T22:50:24.299Z,15.70
2023-04-11T22:52:52.447Z,15.70
2023-04-11T22:55:21.402Z,15.70
2023-04-11T22:57:51.126Z,15.70
2023-04-11T23:00:19.697Z,15.70
2023-04-11T23:02:48.487Z,15.70
2023-04-11T23:26:25.037Z,15.60
2023-04-11T23:28:53.962Z,15.70
2023-04-11T23:31:22.142Z,15.60
2023-04-11T23:33:50.201Z,15.60
2023-04-11T23:36:18.224Z,15.60
2023-04-11T23:38:46.861Z,15.60
2023-04-11T23:41:15.213Z,15.60
2023-04-11T23:43:44.741Z,15.60
2023-04-11T23:46:13.434Z,15.60
2023-04-11T23:48:41.712Z,15.60
2023-04-11T23:51:09.597Z,15.60
2023-04-11T23:53:37.725Z,15.60
2023-04-11T23:56:06.495Z,15.60
2023-04-11T23:58:35.166Z,15.60
